sensor_id;sensor_type;location;lat;lon;timestamp;pressure;altitude;pressure_sealevel;temperature;humidity
73341;BME280;61578;52.002;5.468;2022-11-11T00:00:22;102787.97;;;10.05;89.47
73341;BME280;61578;52.002;5.468;2022-11-11T00:01:14;102792.44;;;10.03;89.15
73341;BME280;61578;52.002;5.468;2022-11-11T00:01:46;102786.19;;;10.05;89.46
73341;BME280;61578;52.002;5.468;2022-11-11T00:02:17;102783.41;;;10.08;89.43
73341;BME280;61578;52.002;5.468;2022-11-11T00:02:48;102786.94;;;10.09;89.15
73341;BME280;61578;52.002;5.468;2022-11-11T00:03:19;102778.94;;;10.10;89.02
73341;BME280;61578;52.002;5.468;2022-11-11T00:03:53;102782.41;;;10.12;89.22
73341;BME280;61578;52.002;5.468;2022-11-11T00:04:25;102781.53;;;10.12;89.23
73341;BME280;61578;52.002;5.468;2022-11-11T00:04:57;102771.91;;;10.08;89.24
73341;BME280;61578;52.002;5.468;2022-11-11T00:05:28;102782.31;;;10.15;89.15
73341;BME280;61578;52.002;5.468;2022-11-11T00:06:04;102782.28;;;10.17;89.16
73341;BME280;61578;52.002;5.468;2022-11-11T00:06:39;102786.69;;;10.18;89.18
73341;BME280;61578;52.002;5.468;2022-11-11T00:07:09;102786.59;;;10.21;88.97
73341;BME280;61578;52.002;5.468;2022-11-11T00:07:41;102733.59;;;9.88;88.87
73341;BME280;61578;52.002;5.468;2022-11-11T00:08:12;102783.03;;;10.22;88.62
73341;BME280;61578;52.002;5.468;2022-11-11T00:08:46;102781.22;;;10.22;88.91
73341;BME280;61578;52.002;5.468;2022-11-11T00:09:18;102740.44;;;9.97;88.72
73341;BME280;61578;52.002;5.468;2022-11-11T00:09:48;102788.41;;;10.19;89.11
73341;BME280;61578;52.002;5.468;2022-11-11T00:10:19;102793.50;;;10.26;88.79
73341;BME280;61578;52.002;5.468;2022-11-11T00:10:50;102797.06;;;10.25;88.88
73341;BME280;61578;52.002;5.468;2022-11-11T00:11:21;102785.69;;;10.22;88.76
73341;BME280;61578;52.002;5.468;2022-11-11T00:11:51;102794.31;;;10.28;88.90
73341;BME280;61578;52.002;5.468;2022-11-11T00:12:22;102796.91;;;10.30;88.75
73341;BME280;61578;52.002;5.468;2022-11-11T00:12:53;102797.78;;;10.30;88.43
73341;BME280;61578;52.002;5.468;2022-11-11T00:13:23;102789.16;;;10.24;88.54
73341;BME280;61578;52.002;5.468;2022-11-11T00:13:54;102744.75;;;10.00;88.54
73341;BME280;61578;52.002;5.468;2022-11-11T00:14:25;102794.13;;;10.35;88.47
73341;BME280;61578;52.002;5.468;2022-11-11T00:14:55;102787.06;;;10.33;88.43
73341;BME280;61578;52.002;5.468;2022-11-11T00:15:28;102796.75;;;10.36;88.42
73341;BME280;61578;52.002;5.468;2022-11-11T00:16:13;102793.16;;;10.37;88.55
73341;BME280;61578;52.002;5.468;2022-11-11T00:16:45;102787.84;;;10.37;88.43
73341;BME280;61578;52.002;5.468;2022-11-11T00:17:35;102783.50;;;10.35;88.15
73341;BME280;61578;52.002;5.468;2022-11-11T00:18:24;102783.34;;;10.39;88.79
73341;BME280;61578;52.002;5.468;2022-11-11T00:19:13;102790.38;;;10.40;88.16
73341;BME280;61578;52.002;5.468;2022-11-11T00:20:03;102745.13;;;10.17;88.36
73341;BME280;61578;52.002;5.468;2022-11-11T00:20:53;102791.22;;;10.42;88.19
73341;BME280;61578;52.002;5.468;2022-11-11T00:21:42;102793.00;;;10.42;88.53
73341;BME280;61578;52.002;5.468;2022-11-11T00:22:32;102795.75;;;10.39;88.37
73341;BME280;61578;52.002;5.468;2022-11-11T00:23:24;102801.31;;;10.31;88.23
73341;BME280;61578;52.002;5.468;2022-11-11T00:24:29;102794.78;;;10.41;88.18
73341;BME280;61578;52.002;5.468;2022-11-11T00:25:18;102799.13;;;10.44;88.38
73341;BME280;61578;52.002;5.468;2022-11-11T00:25:53;102800.00;;;10.44;88.15
73341;BME280;61578;52.002;5.468;2022-11-11T00:26:25;102799.13;;;10.44;88.14
73341;BME280;61578;52.002;5.468;2022-11-11T00:26:57;102763.56;;;10.21;88.29
73341;BME280;61578;52.002;5.468;2022-11-11T00:27:28;102797.41;;;10.43;88.36
73341;BME280;61578;52.002;5.468;2022-11-11T00:27:58;102806.22;;;10.43;88.32
73341;BME280;61578;52.002;5.468;2022-11-11T00:28:29;102792.88;;;10.46;88.56
73341;BME280;61578;52.002;5.468;2022-11-11T00:29:00;102749.50;;;10.18;88.15
73341;BME280;61578;52.002;5.468;2022-11-11T00:29:30;102800.84;;;10.46;88.43
73341;BME280;61578;52.002;5.468;2022-11-11T00:30:01;102804.31;;;10.48;88.30
73341;BME280;61578;52.002;5.468;2022-11-11T00:30:32;102810.53;;;10.47;88.68
73341;BME280;61578;52.002;5.468;2022-11-11T00:31:08;102808.69;;;10.49;88.34
73341;BME280;61578;52.002;5.468;2022-11-11T00:31:44;102806.91;;;10.50;88.29
73341;BME280;61578;52.002;5.468;2022-11-11T00:32:33;102807.72;;;10.52;88.52
73341;BME280;61578;52.002;5.468;2022-11-11T00:33:04;102772.06;;;10.32;88.58
73341;BME280;61578;52.002;5.468;2022-11-11T00:33:35;102801.50;;;10.53;88.68
73341;BME280;61578;52.002;5.468;2022-11-11T00:34:06;102744.06;;;10.22;88.04
73341;BME280;61578;52.002;5.468;2022-11-11T00:34:37;102795.34;;;10.51;88.36
73341;BME280;61578;52.002;5.468;2022-11-11T00:35:08;102801.44;;;10.54;88.23
73341;BME280;61578;52.002;5.468;2022-11-11T00:35:58;102798.75;;;10.56;88.03
73341;BME280;61578;52.002;5.468;2022-11-11T00:36:29;102791.66;;;10.56;87.93
73341;BME280;61578;52.002;5.468;2022-11-11T00:37:00;102795.19;;;10.57;87.84
73341;BME280;61578;52.002;5.468;2022-11-11T00:37:32;102778.69;;;10.47;88.17
73341;BME280;61578;52.002;5.468;2022-11-11T00:38:08;102801.34;;;10.57;88.30
73341;BME280;61578;52.002;5.468;2022-11-11T00:38:41;102789.09;;;10.53;88.32
73341;BME280;61578;52.002;5.468;2022-11-11T00:39:18;102782.03;;;10.52;88.09
73341;BME280;61578;52.002;5.468;2022-11-11T00:39:49;102796.97;;;10.56;88.04
73341;BME280;61578;52.002;5.468;2022-11-11T00:40:20;102804.75;;;10.61;88.06
73341;BME280;61578;52.002;5.468;2022-11-11T00:40:51;102803.91;;;10.60;87.99
73341;BME280;61578;52.002;5.468;2022-11-11T00:41:23;102745.50;;;10.32;87.85
73341;BME280;61578;52.002;5.468;2022-11-11T00:41:57;102809.19;;;10.60;88.06
73341;BME280;61578;52.002;5.468;2022-11-11T00:42:27;102800.31;;;10.61;88.18
73341;BME280;61578;52.002;5.468;2022-11-11T00:42:58;102797.72;;;10.60;87.81
73341;BME280;61578;52.002;5.468;2022-11-11T00:43:29;102790.59;;;10.60;87.82
73341;BME280;61578;52.002;5.468;2022-11-11T00:44:00;102801.19;;;10.62;87.79
73341;BME280;61578;52.002;5.468;2022-11-11T00:44:31;102798.44;;;10.65;87.96
73341;BME280;61578;52.002;5.468;2022-11-11T00:45:03;102792.25;;;10.64;88.08
73341;BME280;61578;52.002;5.468;2022-11-11T00:45:34;102790.44;;;10.66;87.73
73341;BME280;61578;52.002;5.468;2022-11-11T00:46:05;102775.50;;;10.62;87.57
73341;BME280;61578;52.002;5.468;2022-11-11T00:46:55;102786.03;;;10.65;87.75
73341;BME280;61578;52.002;5.468;2022-11-11T00:47:44;102777.31;;;10.60;87.72
73341;BME280;61578;52.002;5.468;2022-11-11T00:48:34;102786.84;;;10.67;87.79
73341;BME280;61578;52.002;5.468;2022-11-11T00:49:23;102784.19;;;10.67;87.88
73341;BME280;61578;52.002;5.468;2022-11-11T00:50:19;102787.78;;;10.66;88.12
73341;BME280;61578;52.002;5.468;2022-11-11T00:51:11;102779.84;;;10.65;87.80
73341;BME280;61578;52.002;5.468;2022-11-11T00:51:42;102748.63;;;10.45;88.09
73341;BME280;61578;52.002;5.468;2022-11-11T00:52:13;102786.94;;;10.64;88.18
73341;BME280;61578;52.002;5.468;2022-11-11T00:52:45;102797.56;;;10.64;88.16
73341;BME280;61578;52.002;5.468;2022-11-11T00:53:25;102790.31;;;10.69;88.05
73341;BME280;61578;52.002;5.468;2022-11-11T00:53:57;102766.75;;;10.59;87.82
73341;BME280;61578;52.002;5.468;2022-11-11T00:54:28;102773.50;;;10.69;87.84
73341;BME280;61578;52.002;5.468;2022-11-11T00:54:59;102784.94;;;10.71;88.02
73341;BME280;61578;52.002;5.468;2022-11-11T00:55:29;102747.50;;;10.52;87.73
73341;BME280;61578;52.002;5.468;2022-11-11T00:56:00;102779.59;;;10.73;87.84
73341;BME280;61578;52.002;5.468;2022-11-11T00:56:31;102780.44;;;10.73;87.81
73341;BME280;61578;52.002;5.468;2022-11-11T00:57:02;102783.94;;;10.75;87.76
73341;BME280;61578;52.002;5.468;2022-11-11T00:57:33;102781.31;;;10.74;87.62
73341;BME280;61578;52.002;5.468;2022-11-11T00:58:03;102781.31;;;10.74;88.07
73341;BME280;61578;52.002;5.468;2022-11-11T00:58:34;102781.31;;;10.74;87.83
73341;BME280;61578;52.002;5.468;2022-11-11T00:59:07;102786.63;;;10.74;88.30
73341;BME280;61578;52.002;5.468;2022-11-11T00:59:38;102789.28;;;10.74;87.83
73341;BME280;61578;52.002;5.468;2022-11-11T01:00:10;102786.63;;;10.74;87.56
73341;BME280;61578;52.002;5.468;2022-11-11T01:00:42;102790.22;;;10.73;88.13
73341;BME280;61578;52.002;5.468;2022-11-11T01:01:13;102790.22;;;10.73;88.00
73341;BME280;61578;52.002;5.468;2022-11-11T01:01:44;102793.69;;;10.75;87.81
73341;BME280;61578;52.002;5.468;2022-11-11T01:02:17;102791.03;;;10.75;88.00
73341;BME280;61578;52.002;5.468;2022-11-11T01:02:48;102803.44;;;10.74;87.98
73341;BME280;61578;52.002;5.468;2022-11-11T01:03:19;102788.47;;;10.72;88.03
73341;BME280;61578;52.002;5.468;2022-11-11T01:03:50;102789.38;;;10.70;87.83
73341;BME280;61578;52.002;5.468;2022-11-11T01:04:22;102791.03;;;10.75;88.01
73341;BME280;61578;52.002;5.468;2022-11-11T01:04:52;102760.66;;;10.57;87.68
73341;BME280;61578;52.002;5.468;2022-11-11T01:05:23;102797.13;;;10.78;87.93
73341;BME280;61578;52.002;5.468;2022-11-11T01:05:59;102777.97;;;10.68;88.00
73341;BME280;61578;52.002;5.468;2022-11-11T01:06:31;102784.84;;;10.74;87.89
73341;BME280;61578;52.002;5.468;2022-11-11T01:07:01;102783.94;;;10.75;87.72
73341;BME280;61578;52.002;5.468;2022-11-11T01:07:32;102793.59;;;10.78;88.00
73341;BME280;61578;52.002;5.468;2022-11-11T01:08:03;102790.06;;;10.77;87.90
73341;BME280;61578;52.002;5.468;2022-11-11T01:08:35;102784.72;;;10.79;87.81
73341;BME280;61578;52.002;5.468;2022-11-11T01:09:06;102776.88;;;10.74;88.02
73341;BME280;61578;52.002;5.468;2022-11-11T01:09:37;102772.56;;;10.70;87.58
73341;BME280;61578;52.002;5.468;2022-11-11T01:10:09;102779.53;;;10.74;87.52
73341;BME280;61578;52.002;5.468;2022-11-11T01:10:41;102748.94;;;10.62;87.72
73341;BME280;61578;52.002;5.468;2022-11-11T01:11:16;102779.25;;;10.82;87.82
73341;BME280;61578;52.002;5.468;2022-11-11T01:11:49;102774.88;;;10.81;87.83
73341;BME280;61578;52.002;5.468;2022-11-11T01:12:19;102774.81;;;10.82;87.79
73341;BME280;61578;52.002;5.468;2022-11-11T01:12:53;102728.81;;;10.55;87.41
73341;BME280;61578;52.002;5.468;2022-11-11T01:13:42;102773.00;;;10.84;87.48
73341;BME280;61578;52.002;5.468;2022-11-11T01:14:14;102785.53;;;10.79;87.44
73341;BME280;61578;52.002;5.468;2022-11-11T01:14:44;102777.44;;;10.84;87.57
73341;BME280;61578;52.002;5.468;2022-11-11T01:15:15;102777.44;;;10.84;87.44
73341;BME280;61578;52.002;5.468;2022-11-11T01:15:49;102773.00;;;10.84;87.40
73341;BME280;61578;52.002;5.468;2022-11-11T01:16:25;102767.03;;;10.78;87.65
73341;BME280;61578;52.002;5.468;2022-11-11T01:16:56;102733.91;;;10.61;87.55
73341;BME280;61578;52.002;5.468;2022-11-11T01:17:28;102760.94;;;10.74;87.30
73341;BME280;61578;52.002;5.468;2022-11-11T01:17:59;102772.13;;;10.84;87.69
73341;BME280;61578;52.002;5.468;2022-11-11T01:18:30;102772.34;;;10.78;87.28
73341;BME280;61578;52.002;5.468;2022-11-11T01:19:01;102732.47;;;10.51;87.72
73341;BME280;61578;52.002;5.468;2022-11-11T01:19:31;102773.22;;;10.78;87.75
73341;BME280;61578;52.002;5.468;2022-11-11T01:20:02;102761.84;;;10.73;87.62
73341;BME280;61578;52.002;5.468;2022-11-11T01:20:34;102781.97;;;10.80;87.39
73341;BME280;61578;52.002;5.468;2022-11-11T01:21:10;102790.75;;;10.82;87.51
73341;BME280;61578;52.002;5.468;2022-11-11T01:21:43;102774.91;;;10.79;87.49
73341;BME280;61578;52.002;5.468;2022-11-11T01:22:13;102773.25;;;10.77;87.85
73341;BME280;61578;52.002;5.468;2022-11-11T01:22:44;102767.16;;;10.73;87.82
73341;BME280;61578;52.002;5.468;2022-11-11T01:23:15;102781.97;;;10.80;87.90
73341;BME280;61578;52.002;5.468;2022-11-11T01:23:47;102781.06;;;10.81;87.96
73341;BME280;61578;52.002;5.468;2022-11-11T01:24:19;102782.88;;;10.79;87.92
73341;BME280;61578;52.002;5.468;2022-11-11T01:24:49;102773.31;;;10.75;87.71
73341;BME280;61578;52.002;5.468;2022-11-11T01:25:20;102791.63;;;10.83;87.94
73341;BME280;61578;52.002;5.468;2022-11-11T01:25:51;102775.91;;;10.77;87.79
73341;BME280;61578;52.002;5.468;2022-11-11T01:26:25;102781.91;;;10.82;87.88
73341;BME280;61578;52.002;5.468;2022-11-11T01:26:57;102781.09;;;10.80;87.86
73341;BME280;61578;52.002;5.468;2022-11-11T01:27:28;102801.41;;;10.82;87.86
73341;BME280;61578;52.002;5.468;2022-11-11T01:27:58;102737.75;;;10.53;88.03
73341;BME280;61578;52.002;5.468;2022-11-11T01:28:29;102773.22;;;10.78;88.35
73341;BME280;61578;52.002;5.468;2022-11-11T01:29:00;102785.63;;;10.78;87.98
73341;BME280;61578;52.002;5.468;2022-11-11T01:29:31;102787.25;;;10.82;87.69
73341;BME280;61578;52.002;5.468;2022-11-11T01:30:02;102782.75;;;10.84;87.74
73341;BME280;61578;52.002;5.468;2022-11-11T01:30:35;102771.44;;;10.79;87.53
73341;BME280;61578;52.002;5.468;2022-11-11T01:31:09;102774.88;;;10.81;87.68
73341;BME280;61578;52.002;5.468;2022-11-11T01:31:43;102778.53;;;10.78;87.76
73341;BME280;61578;52.002;5.468;2022-11-11T01:32:14;102778.25;;;10.86;87.74
73341;BME280;61578;52.002;5.468;2022-11-11T01:32:45;102802.13;;;10.87;87.58
73341;BME280;61578;52.002;5.468;2022-11-11T01:33:16;102778.34;;;10.83;87.78
73341;BME280;61578;52.002;5.468;2022-11-11T01:33:47;102776.47;;;10.86;87.53
73341;BME280;61578;52.002;5.468;2022-11-11T01:34:18;102784.31;;;10.89;87.49
73341;BME280;61578;52.002;5.468;2022-11-11T01:34:48;102786.13;;;10.89;87.69
73341;BME280;61578;52.002;5.468;2022-11-11T01:35:19;102778.06;;;10.90;87.43
73341;BME280;61578;52.002;5.468;2022-11-11T01:35:50;102772.94;;;10.86;87.65
73341;BME280;61578;52.002;5.468;2022-11-11T01:36:25;102775.41;;;10.90;87.72
73341;BME280;61578;52.002;5.468;2022-11-11T01:36:57;102763.31;;;10.82;87.88
73341;BME280;61578;52.002;5.468;2022-11-11T01:37:27;102771.16;;;10.86;87.48
73341;BME280;61578;52.002;5.468;2022-11-11T01:37:58;102786.88;;;10.92;87.39
73341;BME280;61578;52.002;5.468;2022-11-11T01:38:29;102775.38;;;10.92;87.61
73341;BME280;61578;52.002;5.468;2022-11-11T01:39:00;102773.53;;;10.94;87.49
73341;BME280;61578;52.002;5.468;2022-11-11T01:39:31;102734.41;;;10.73;87.49
73341;BME280;61578;52.002;5.468;2022-11-11T01:40:02;102780.59;;;10.95;87.54
73341;BME280;61578;52.002;5.468;2022-11-11T01:40:44;102777.88;;;10.96;87.37
73341;BME280;61578;52.002;5.468;2022-11-11T01:41:20;102769.97;;;10.95;87.42
73341;BME280;61578;52.002;5.468;2022-11-11T01:42:03;102760.34;;;10.91;87.19
73341;BME280;61578;52.002;5.468;2022-11-11T01:43:37;102765.47;;;10.97;87.49
73341;BME280;61578;52.002;5.468;2022-11-11T01:43:42;102774.31;;;10.97;87.32
73341;BME280;61578;52.002;5.468;2022-11-11T01:44:47;102772.53;;;10.98;87.06
73341;BME280;61578;52.002;5.468;2022-11-11T01:46:39;102765.34;;;11.00;87.14
73341;BME280;61578;52.002;5.468;2022-11-11T01:47:11;102765.28;;;11.01;87.14
73341;BME280;61578;52.002;5.468;2022-11-11T01:47:43;102761.97;;;10.95;87.40
73341;BME280;61578;52.002;5.468;2022-11-11T01:48:45;102742.06;;;10.82;87.16
73341;BME280;61578;52.002;5.468;2022-11-11T01:50:27;102757.63;;;10.92;87.16
73341;BME280;61578;52.002;5.468;2022-11-11T01:50:58;102767.25;;;10.96;87.34
73341;BME280;61578;52.002;5.468;2022-11-11T01:51:40;102718.53;;;10.71;87.32
73341;BME280;61578;52.002;5.468;2022-11-11T01:52:50;102761.81;;;10.99;87.38
73341;BME280;61578;52.002;5.468;2022-11-11T01:53:20;102763.63;;;10.99;87.17
73341;BME280;61578;52.002;5.468;2022-11-11T01:53:57;102762.75;;;10.98;87.29
73341;BME280;61578;52.002;5.468;2022-11-11T01:54:47;102766.28;;;10.99;87.46
73341;BME280;61578;52.002;5.468;2022-11-11T01:55:21;102767.22;;;10.98;87.28
73341;BME280;61578;52.002;5.468;2022-11-11T01:55:56;102766.28;;;10.99;87.42
73341;BME280;61578;52.002;5.468;2022-11-11T01:56:30;102766.19;;;11.00;87.12
73341;BME280;61578;52.002;5.468;2022-11-11T01:57:51;102759.22;;;10.98;87.36
73341;BME280;61578;52.002;5.468;2022-11-11T01:58:14;102750.34;;;10.99;87.60
73341;BME280;61578;52.002;5.468;2022-11-11T01:58:50;102763.53;;;11.00;87.43
73341;BME280;61578;52.002;5.468;2022-11-11T01:59:25;102766.09;;;11.03;87.27
73341;BME280;61578;52.002;5.468;2022-11-11T02:00:04;102760.88;;;11.00;87.13
73341;BME280;61578;52.002;5.468;2022-11-11T02:00:39;102762.53;;;11.04;86.90
73341;BME280;61578;52.002;5.468;2022-11-11T02:01:09;102771.44;;;11.03;87.01
73341;BME280;61578;52.002;5.468;2022-11-11T02:01:40;102760.84;;;11.02;87.12
73341;BME280;61578;52.002;5.468;2022-11-11T02:02:23;102753.84;;;10.99;87.00
73341;BME280;61578;52.002;5.468;2022-11-11T02:03:06;102762.56;;;11.03;87.04
73341;BME280;61578;52.002;5.468;2022-11-11T02:03:40;102762.53;;;11.04;87.09
73341;BME280;61578;52.002;5.468;2022-11-11T02:04:33;102757.38;;;11.00;86.94
73341;BME280;61578;52.002;5.468;2022-11-11T02:05:24;102764.38;;;11.02;87.25
73341;BME280;61578;52.002;5.468;2022-11-11T02:06:15;102762.56;;;11.03;86.95
73341;BME280;61578;52.002;5.468;2022-11-11T02:06:51;102755.72;;;10.97;87.05
73341;BME280;61578;52.002;5.468;2022-11-11T02:07:25;102769.72;;;11.01;87.30
73341;BME280;61578;52.002;5.468;2022-11-11T02:08:00;102768.94;;;10.99;87.29
73341;BME280;61578;52.002;5.468;2022-11-11T02:08:36;102748.78;;;10.92;87.16
73341;BME280;61578;52.002;5.468;2022-11-11T02:09:07;102763.63;;;10.99;87.25
73341;BME280;61578;52.002;5.468;2022-11-11T02:09:42;102776.91;;;10.99;87.34
73341;BME280;61578;52.002;5.468;2022-11-11T02:10:21;102760.25;;;10.94;87.24
73341;BME280;61578;52.002;5.468;2022-11-11T02:10:55;102716.91;;;10.67;87.31
73341;BME280;61578;52.002;5.468;2022-11-11T02:11:27;102765.50;;;10.95;87.12
73341;BME280;61578;52.002;5.468;2022-11-11T02:12:19;102688.25;;;10.50;87.44
73341;BME280;61578;52.002;5.468;2022-11-11T02:13:16;102737.72;;;10.79;87.55
73341;BME280;61578;52.002;5.468;2022-11-11T02:14:05;102731.56;;;10.79;87.73
73341;BME280;61578;52.002;5.468;2022-11-11T02:14:58;102766.47;;;10.93;87.33
73341;BME280;61578;52.002;5.468;2022-11-11T02:15:34;102762.91;;;10.94;87.25
73341;BME280;61578;52.002;5.468;2022-11-11T02:16:06;102762.81;;;10.97;87.11
73341;BME280;61578;52.002;5.468;2022-11-11T02:16:37;102764.59;;;10.96;87.28
73341;BME280;61578;52.002;5.468;2022-11-11T02:17:11;102761.06;;;10.96;87.34
73341;BME280;61578;52.002;5.468;2022-11-11T02:17:45;102762.03;;;10.93;87.12
73341;BME280;61578;52.002;5.468;2022-11-11T02:18:19;102755.84;;;10.93;87.37
73341;BME280;61578;52.002;5.468;2022-11-11T02:18:50;102763.88;;;10.91;87.27
73341;BME280;61578;52.002;5.468;2022-11-11T02:19:31;102766.47;;;10.93;87.13
73341;BME280;61578;52.002;5.468;2022-11-11T02:20:22;102761.16;;;10.93;87.34
73341;BME280;61578;52.002;5.468;2022-11-11T02:20:56;102754.28;;;10.87;87.60
73341;BME280;61578;52.002;5.468;2022-11-11T02:21:36;102753.38;;;10.88;87.59
73341;BME280;61578;52.002;5.468;2022-11-11T02:22:21;102747.28;;;10.85;87.67
73341;BME280;61578;52.002;5.468;2022-11-11T02:23:27;102760.53;;;10.86;87.55
73341;BME280;61578;52.002;5.468;2022-11-11T02:24:11;102753.41;;;10.87;87.52
73341;BME280;61578;52.002;5.468;2022-11-11T02:24:48;102755.16;;;10.88;87.62
73341;BME280;61578;52.002;5.468;2022-11-11T02:25:25;102757.81;;;10.88;87.75
73341;BME280;61578;52.002;5.468;2022-11-11T02:26:03;102741.25;;;10.80;87.50
73341;BME280;61578;52.002;5.468;2022-11-11T02:26:37;102758.59;;;10.90;87.80
73341;BME280;61578;52.002;5.468;2022-11-11T02:27:13;102755.06;;;10.89;87.76
73341;BME280;61578;52.002;5.468;2022-11-11T02:27:50;102758.59;;;10.90;87.30
73341;BME280;61578;52.002;5.468;2022-11-11T02:28:26;102759.47;;;10.90;87.55
73341;BME280;61578;52.002;5.468;2022-11-11T02:28:59;102752.41;;;10.89;87.67
73341;BME280;61578;52.002;5.468;2022-11-11T02:29:35;102760.41;;;10.89;87.56
73341;BME280;61578;52.002;5.468;2022-11-11T02:30:07;102763.06;;;10.89;87.38
73341;BME280;61578;52.002;5.468;2022-11-11T02:30:45;102773.63;;;10.91;87.32
73341;BME280;61578;52.002;5.468;2022-11-11T02:31:17;102757.00;;;10.86;87.55
73341;BME280;61578;52.002;5.468;2022-11-11T02:31:48;102763.06;;;10.89;87.43
73341;BME280;61578;52.002;5.468;2022-11-11T02:32:19;102767.44;;;10.90;87.47
73341;BME280;61578;52.002;5.468;2022-11-11T02:32:52;102735.38;;;10.70;87.13
73341;BME280;61578;52.002;5.468;2022-11-11T02:33:23;102764.06;;;10.87;87.58
73341;BME280;61578;52.002;5.468;2022-11-11T02:33:54;102769.38;;;10.87;87.23
73341;BME280;61578;52.002;5.468;2022-11-11T02:34:32;102778.25;;;10.86;87.60
73341;BME280;61578;52.002;5.468;2022-11-11T02:35:15;102762.34;;;10.84;87.49
73341;BME280;61578;52.002;5.468;2022-11-11T02:36:00;102758.13;;;10.79;87.71
73341;BME280;61578;52.002;5.468;2022-11-11T02:36:31;102761.59;;;10.81;87.46
73341;BME280;61578;52.002;5.468;2022-11-11T02:37:06;102758.19;;;10.77;87.58
73341;BME280;61578;52.002;5.468;2022-11-11T02:37:37;102726.00;;;10.60;87.81
73341;BME280;61578;52.002;5.468;2022-11-11T02:38:09;102751.94;;;10.78;87.59
73341;BME280;61578;52.002;5.468;2022-11-11T02:38:44;102759.78;;;10.81;87.86
73341;BME280;61578;52.002;5.468;2022-11-11T02:39:14;102758.94;;;10.81;87.56
73341;BME280;61578;52.002;5.468;2022-11-11T02:39:47;102758.97;;;10.79;87.66
73341;BME280;61578;52.002;5.468;2022-11-11T02:40:30;102761.63;;;10.79;87.81
73341;BME280;61578;52.002;5.468;2022-11-11T02:41:05;102761.84;;;10.73;87.74
73341;BME280;61578;52.002;5.468;2022-11-11T02:41:55;102762.69;;;10.75;87.83
73341;BME280;61578;52.002;5.468;2022-11-11T02:42:26;102758.31;;;10.73;87.76
73341;BME280;61578;52.002;5.468;2022-11-11T02:42:58;102770.59;;;10.77;87.84
73341;BME280;61578;52.002;5.468;2022-11-11T02:43:33;102769.69;;;10.78;87.66
73341;BME280;61578;52.002;5.468;2022-11-11T02:44:03;102722.81;;;10.49;87.90
73341;BME280;61578;52.002;5.468;2022-11-11T02:44:35;102774.09;;;10.79;87.60
73341;BME280;61578;52.002;5.468;2022-11-11T02:45:09;102770.56;;;10.78;87.79
73341;BME280;61578;52.002;5.468;2022-11-11T02:45:40;102774.09;;;10.79;87.71
73341;BME280;61578;52.002;5.468;2022-11-11T02:46:11;102768.75;;;10.79;87.78
73341;BME280;61578;52.002;5.468;2022-11-11T02:46:41;102768.75;;;10.79;87.81
73341;BME280;61578;52.002;5.468;2022-11-11T02:47:12;102771.28;;;10.82;87.67
73341;BME280;61578;52.002;5.468;2022-11-11T02:47:43;102769.50;;;10.82;87.50
73341;BME280;61578;52.002;5.468;2022-11-11T02:48:13;102766.09;;;10.79;87.60
73341;BME280;61578;52.002;5.468;2022-11-11T02:48:45;102723.50;;;10.55;87.45
73341;BME280;61578;52.002;5.468;2022-11-11T02:49:16;102756.41;;;10.78;87.51
73341;BME280;61578;52.002;5.468;2022-11-11T02:49:46;102769.50;;;10.82;87.34
73341;BME280;61578;52.002;5.468;2022-11-11T02:50:17;102765.97;;;10.82;87.65
73341;BME280;61578;52.002;5.468;2022-11-11T02:50:48;102765.09;;;10.81;87.32
73341;BME280;61578;52.002;5.468;2022-11-11T02:51:19;102763.28;;;10.83;87.32
73341;BME280;61578;52.002;5.468;2022-11-11T02:51:50;102764.25;;;10.81;87.31
73341;BME280;61578;52.002;5.468;2022-11-11T02:52:21;102750.31;;;10.74;87.38
73341;BME280;61578;52.002;5.468;2022-11-11T02:52:51;102758.88;;;10.82;87.27
73341;BME280;61578;52.002;5.468;2022-11-11T02:53:23;102757.28;;;10.78;87.13
73341;BME280;61578;52.002;5.468;2022-11-11T02:53:54;102761.59;;;10.81;87.00
73341;BME280;61578;52.002;5.468;2022-11-11T02:54:28;102765.28;;;10.77;87.39
73341;BME280;61578;52.002;5.468;2022-11-11T02:54:59;102754.66;;;10.77;87.03
73341;BME280;61578;52.002;5.468;2022-11-11T02:55:31;102749.44;;;10.74;87.44
73341;BME280;61578;52.002;5.468;2022-11-11T02:56:01;102750.44;;;10.69;87.37
73341;BME280;61578;52.002;5.468;2022-11-11T02:56:32;102768.94;;;10.73;87.29
73341;BME280;61578;52.002;5.468;2022-11-11T02:57:22;102758.41;;;10.69;87.43
73341;BME280;61578;52.002;5.468;2022-11-11T02:57:53;102755.84;;;10.68;87.44
73341;BME280;61578;52.002;5.468;2022-11-11T02:58:23;102753.22;;;10.66;87.57
73341;BME280;61578;52.002;5.468;2022-11-11T02:58:54;102709.16;;;10.35;87.67
73341;BME280;61578;52.002;5.468;2022-11-11T02:59:25;102752.50;;;10.61;87.44
73341;BME280;61578;52.002;5.468;2022-11-11T02:59:58;102756.91;;;10.62;87.74
73341;BME280;61578;52.002;5.468;2022-11-11T03:00:30;102710.84;;;10.37;87.82
73341;BME280;61578;52.002;5.468;2022-11-11T03:01:00;102756.84;;;10.64;87.92
73341;BME280;61578;52.002;5.468;2022-11-11T03:01:31;102758.63;;;10.63;87.89
73341;BME280;61578;52.002;5.468;2022-11-11T03:02:02;102749.25;;;10.53;88.12
73341;BME280;61578;52.002;5.468;2022-11-11T03:02:33;102750.75;;;10.60;88.12
73341;BME280;61578;52.002;5.468;2022-11-11T03:03:04;102752.56;;;10.60;88.07
73341;BME280;61578;52.002;5.468;2022-11-11T03:03:35;102743.84;;;10.56;87.92
73341;BME280;61578;52.002;5.468;2022-11-11T03:04:05;102750.06;;;10.55;88.05
73341;BME280;61578;52.002;5.468;2022-11-11T03:04:37;102752.63;;;10.58;88.26
73341;BME280;61578;52.002;5.468;2022-11-11T03:05:08;102744.66;;;10.58;87.94
73341;BME280;61578;52.002;5.468;2022-11-11T03:05:39;102755.22;;;10.60;88.19
73341;BME280;61578;52.002;5.468;2022-11-11T03:06:10;102754.41;;;10.58;88.25